Time;durP1;ratioP1;P1;durP2;ratioP2;P2;SDS_P1;SDS_P2;PMS_P1;PMS_P2;Temp;Humidity;BMP_temperature;BMP_pressure;BME280_temperature;BME280_humidity;BME280_pressure;Samples;Min_cycle;Max_cycle;Signal;HPM_P1;HPM_P2
2023/04/20 00:01:52;;;;;;;40.70;25.30;;;;;;;7.44;100.00;100994.84;218071;1291;140348;-84
2023/04/20 00:06:52;;;;;;;43.60;27.10;;;;;;;7.46;100.00;100992.65;218631;1294;139234;-83
2023/04/20 00:11:53;;;;;;;42.50;27.00;;;;;;;7.45;100.00;100998.01;218147;1291;140068;-84
2023/04/20 00:16:53;;;;;;;35.80;23.00;;;;;;;7.43;100.00;101010.13;218574;1291;139047;-84
2023/04/20 00:21:53;;;;;;;45.40;27.00;;;;;;;7.43;100.00;101005.37;218121;1290;139867;-84
2023/04/20 00:26:54;;;;;;;42.20;25.80;;;;;;;7.46;100.00;101005.95;218695;1290;139327;-84
2023/04/20 00:31:54;;;;;;;41.40;26.20;;;;;;;7.48;100.00;101000.27;218253;1292;138784;-84
2023/04/20 00:36:55;;;;;;;38.50;24.60;;;;;;;7.50;100.00;100999.57;218644;1290;138919;-84
2023/04/20 00:42:03;;;;;;;42.80;26.90;;;;;;;7.51;100.00;101001.90;218082;1291;139275;-84
2023/04/20 00:47:03;;;;;;;40.00;25.00;;;;;;;7.53;100.00;101001.78;218514;1289;139207;-84
2023/04/20 00:52:04;;;;;;;44.90;28.00;;;;;;;7.53;100.00;101004.36;217964;1291;140303;-84
2023/04/20 00:57:05;;;;;;;43.10;26.80;;;;;;;7.51;100.00;100996.33;218568;1290;139773;-84
2023/04/20 01:02:05;;;;;;;44.10;27.50;;;;;;;7.49;100.00;100996.11;218110;1291;139718;-85
2023/04/20 01:07:05;;;;;;;43.70;28.30;;;;;;;7.50;100.00;100998.48;218664;1291;95679;-85
2023/04/20 01:12:06;;;;;;;43.70;26.60;;;;;;;7.49;100.00;100996.98;218026;1291;138887;-84
2023/04/20 01:17:07;;;;;;;48.20;27.00;;;;;;;7.47;100.00;100990.45;218436;1291;139062;-85
2023/04/20 01:22:07;;;;;;;46.60;27.90;;;;;;;7.42;100.00;100984.62;218186;1290;139577;-84
2023/04/20 01:27:07;;;;;;;44.80;27.70;;;;;;;7.39;100.00;100979.81;218543;1290;139012;-83
2023/04/20 01:32:09;;;;;;;44.00;27.10;;;;;;;7.35;100.00;100969.06;218671;1291;139777;-84
2023/04/20 01:37:09;;;;;;;46.70;28.70;;;;;;;7.31;100.00;100967.98;218571;1290;96020;-83
2023/04/20 01:42:10;;;;;;;43.40;27.90;;;;;;;7.30;100.00;100971.84;218091;1290;139387;-84
2023/04/20 01:47:10;;;;;;;45.20;27.80;;;;;;;7.30;100.00;100975.61;218530;1291;139227;-84
2023/04/20 01:52:10;;;;;;;45.40;28.70;;;;;;;7.29;100.00;100973.68;218036;1290;139181;-84
2023/04/20 01:57:11;;;;;;;44.10;26.30;;;;;;;7.27;100.00;100976.92;218608;1290;139094;-85
2023/04/20 02:02:11;;;;;;;39.80;25.00;;;;;;;7.23;100.00;100975.84;218217;1291;140083;-83
2023/04/20 02:07:11;;;;;;;44.50;26.80;;;;;;;7.20;100.00;100971.27;218751;1290;95659;-84
2023/04/20 02:12:12;;;;;;;43.60;26.60;;;;;;;7.19;100.00;100970.71;218123;1290;138846;-84
2023/04/20 02:17:12;;;;;;;42.50;25.00;;;;;;;7.18;100.00;100965.96;218591;1290;139267;-84
2023/04/20 02:22:13;;;;;;;41.50;26.50;;;;;;;7.17;100.00;100975.80;218133;1291;139461;-84
2023/04/20 02:27:13;;;;;;;37.10;23.60;;;;;;;7.16;100.00;100977.27;218652;1290;139037;-84
2023/04/20 02:32:13;;;;;;;39.20;24.20;;;;;;;7.18;100.00;100978.17;218034;1290;139181;-84
2023/04/20 02:37:14;;;;;;;41.00;25.30;;;;;;;7.19;100.00;100982.83;218757;1290;95658;-84
2023/04/20 02:42:14;;;;;;;38.70;24.80;;;;;;;7.21;100.00;100978.42;218124;1290;138795;-84
2023/04/20 02:47:15;;;;;;;41.80;25.10;;;;;;;7.20;100.00;100973.80;218667;1290;139937;-84
2023/04/20 02:52:15;;;;;;;41.90;24.20;;;;;;;7.19;100.00;100980.80;218145;1290;139807;-84
2023/04/20 02:57:15;;;;;;;39.90;24.80;;;;;;;7.20;100.00;100980.89;218574;1290;138977;-84
2023/04/20 03:02:16;;;;;;;35.90;23.90;;;;;;;7.19;100.00;100980.41;218186;1290;139465;-83
2023/04/20 03:07:17;;;;;;;39.80;24.90;;;;;;;7.19;100.00;100983.70;218618;1291;95792;-84
2023/04/20 03:12:17;;;;;;;39.40;23.50;;;;;;;7.18;100.00;100981.72;218112;1290;139558;-84
2023/04/20 03:17:17;;;;;;;37.80;24.30;;;;;;;7.18;100.00;100974.02;218710;1290;139897;-84
2023/04/20 03:22:18;;;;;;;37.20;23.70;;;;;;;7.17;100.00;100971.88;218223;1290;140937;-84
2023/04/20 03:27:18;;;;;;;34.40;23.30;;;;;;;7.16;100.00;100978.52;219197;1290;139954;-84
2023/04/20 03:32:18;;;;;;;38.30;24.70;;;;;;;7.14;100.00;100980.63;218036;1290;139869;-84
2023/04/20 03:37:19;;;;;;;39.80;24.00;;;;;;;7.13;100.00;100977.39;218704;1290;95746;-84
2023/04/20 03:42:19;;;;;;;43.90;27.10;;;;;;;7.14;100.00;100980.08;218203;1290;138635;-84
2023/04/20 03:47:20;;;;;;;47.30;27.30;;;;;;;7.11;100.00;100984.52;218657;1290;141268;-84
2023/04/20 03:52:20;;;;;;;41.20;25.30;;;;;;;7.08;100.00;100980.65;217998;1290;139885;-84
2023/04/20 03:57:21;;;;;;;40.90;24.00;;;;;;;7.06;100.00;100989.20;218674;1290;139208;-83
2023/04/20 04:02:21;;;;;;;44.30;25.70;;;;;;;7.07;100.00;100985.94;218138;1290;139433;-84
2023/04/20 04:07:21;;;;;;;37.10;23.30;;;;;;;7.03;100.00;100984.62;218726;1290;95672;-84
2023/04/20 04:12:22;;;;;;;38.70;24.50;;;;;;;6.98;100.00;100984.62;218154;1290;139039;-83
2023/04/20 04:17:22;;;;;;;36.00;24.00;;;;;;;6.96;100.00;100979.54;218505;1290;268957;-83
2023/04/20 04:22:22;;;;;;;36.40;23.20;;;;;;;6.93;100.00;100990.08;218150;1290;139145;-84
2023/04/20 04:27:23;;;;;;;43.20;26.00;;;;;;;6.92;100.00;100988.14;218433;1290;139354;-83
2023/04/20 04:32:23;;;;;;;41.40;24.90;;;;;;;6.92;100.00;100989.02;218171;1291;139112;-84
2023/04/20 04:37:24;;;;;;;39.70;24.30;;;;;;;6.92;100.00;100989.58;218665;1290;95678;-83
2023/04/20 04:42:26;;;;;;;39.90;25.50;;;;;;;6.93;100.00;100988.27;218145;1290;139459;-85
2023/04/20 04:47:30;;;;;;;38.90;24.70;;;;;;;6.95;100.00;100989.65;218720;1290;139170;-85
2023/04/20 04:52:34;;;;;;;43.70;25.80;;;;;;;6.98;100.00;100986.80;217971;1290;139924;-84
2023/04/20 04:57:35;;;;;;;40.50;26.00;;;;;;;7.03;100.00;100991.13;218509;1290;139171;-84
2023/04/20 05:02:35;;;;;;;40.70;24.40;;;;;;;7.10;100.00;100995.02;217986;1290;140232;-84
2023/04/20 05:07:37;;;;;;;39.20;25.40;;;;;;;7.18;100.00;101006.64;218807;1290;96501;-84
2023/04/20 05:12:38;;;;;;;35.10;24.10;;;;;;;7.25;100.00;101008.52;218147;1290;139780;-84
2023/04/20 05:17:38;;;;;;;39.50;25.40;;;;;;;7.34;100.00;101002.33;219243;1290;138918;-84
2023/04/20 05:22:39;;;;;;;39.00;24.50;;;;;;;7.44;100.00;101005.02;218494;1290;139431;-84
2023/04/20 05:27:39;;;;;;;39.00;26.10;;;;;;;7.54;100.00;101011.66;218572;1290;139235;-84
2023/04/20 05:32:39;;;;;;;42.80;26.60;;;;;;;7.64;100.00;101009.90;218159;1290;140078;-84
2023/04/20 05:37:40;;;;;;;42.20;27.70;;;;;;;7.78;100.00;101015.36;218680;1290;95966;-84
2023/04/20 05:42:40;;;;;;;39.00;26.00;;;;;;;7.96;100.00;101009.16;218168;1290;138891;-84
2023/04/20 05:47:41;;;;;;;36.90;23.20;;;;;;;8.16;100.00;101014.58;218576;1290;140010;-85
2023/04/20 05:52:41;;;;;;;35.90;23.60;;;;;;;8.34;100.00;101022.73;218180;1290;139263;-85
2023/04/20 05:57:41;;;;;;;33.30;21.90;;;;;;;8.46;100.00;101019.80;218599;1290;139279;-85
2023/04/20 06:02:42;;;;;;;31.10;20.10;;;;;;;8.59;100.00;101014.31;218038;1290;139752;-83
2023/04/20 06:07:42;;;;;;;32.80;21.40;;;;;;;8.73;100.00;101009.91;218714;1290;95765;-85
2023/04/20 06:12:43;;;;;;;27.30;18.80;;;;;;;8.89;100.00;101015.20;218206;1290;139715;-84
2023/04/20 06:17:43;;;;;;;30.10;18.50;;;;;;;9.05;100.00;101014.30;218684;1290;138809;-83
2023/04/20 06:22:44;;;;;;;25.10;17.30;;;;;;;9.21;100.00;101013.95;218210;1290;139963;-85
2023/04/20 06:27:45;;;;;;;30.30;18.60;;;;;;;9.35;100.00;101021.06;218611;1290;139815;-86
2023/04/20 06:32:45;;;;;;;32.90;19.50;;;;;;;9.50;100.00;101018.22;218009;1290;139385;-84
2023/04/20 06:37:46;;;;;;;33.70;20.50;;;;;;;9.61;100.00;101027.21;218752;1290;95681;-85
2023/04/20 06:42:46;;;;;;;33.10;20.10;;;;;;;9.71;100.00;101030.73;218190;1290;139095;-87
2023/04/20 06:47:46;;;;;;;28.40;17.60;;;;;;;9.83;100.00;101034.95;218564;1290;138970;-86
2023/04/20 06:52:47;;;;;;;26.60;18.20;;;;;;;9.91;100.00;101035.78;218180;1290;138976;-88
2023/04/20 06:57:48;;;;;;;30.40;19.60;;;;;;;10.06;100.00;101035.93;218459;1290;139953;-87
2023/04/20 07:02:50;;;;;;;29.20;19.90;;;;;;;10.20;100.00;101033.66;218251;1290;139835;-88
2023/04/20 07:07:50;;;;;;;31.00;18.90;;;;;;;10.34;100.00;101030.50;218700;1290;95727;-91
2023/04/20 07:12:50;;;;;;;28.60;19.50;;;;;;;10.46;100.00;101036.41;218236;1290;139331;-86
2023/04/20 07:17:51;;;;;;;27.40;18.40;;;;;;;10.50;100.00;101039.55;218862;1290;138102;-86
2023/04/20 07:22:51;;;;;;;27.10;18.60;;;;;;;10.51;100.00;101036.92;218002;1290;139410;-88
2023/04/20 07:27:52;;;;;;;29.60;20.10;;;;;;;10.61;100.00;101040.12;218468;1290;139425;-87
2023/04/20 07:32:52;;;;;;;29.00;20.00;;;;;;;10.79;100.00;101048.28;217941;1290;139612;-88
2023/04/20 07:37:52;;;;;;;28.00;19.50;;;;;;;11.02;100.00;101054.29;218704;1290;97032;-88
2023/04/20 07:42:53;;;;;;;27.10;17.70;;;;;;;11.24;100.00;101054.09;218070;1290;139457;-88
2023/04/20 07:47:54;;;;;;;26.70;17.90;;;;;;;11.48;100.00;101053.83;218489;1290;139782;-89
2023/04/20 07:52:54;;;;;;;25.80;17.70;;;;;;;11.83;100.00;101063.97;217865;1290;139617;-88
2023/04/20 07:57:55;;;;;;;24.00;16.40;;;;;;;12.18;100.00;101066.64;218576;1290;140137;-87
2023/04/20 08:02:56;;;;;;;23.10;17.00;;;;;;;12.50;100.00;101063.63;218122;1290;140847;-88
2023/04/20 08:07:57;;;;;;;24.30;15.90;;;;;;;12.80;100.00;101064.55;218657;1290;96238;-87
2023/04/20 08:12:58;;;;;;;20.30;13.90;;;;;;;13.07;100.00;101062.86;218182;1290;139137;-87
2023/04/20 08:17:58;;;;;;;19.30;13.90;;;;;;;13.29;100.00;101063.25;218735;1290;139818;-87
2023/04/20 08:22:58;;;;;;;22.60;11.90;;;;;;;13.53;100.00;101065.85;218163;1290;139793;-86
2023/04/20 08:27:59;;;;;;;17.80;11.90;;;;;;;13.83;100.00;101066.34;218589;1290;139810;-82
2023/04/20 08:33:00;;;;;;;18.50;11.90;;;;;;;14.16;100.00;101075.08;218095;1290;139441;-86
2023/04/20 08:38:00;;;;;;;17.60;11.30;;;;;;;14.78;100.00;101077.41;218657;1290;95945;-87
2023/04/20 08:43:01;;;;;;;20.10;11.00;;;;;;;15.40;100.00;101069.22;218080;1290;141052;-88
2023/04/20 08:48:09;;;;;;;18.40;10.00;;;;;;;16.19;100.00;101068.69;218648;1290;139590;-85
2023/04/20 08:53:09;;;;;;;16.60;10.40;;;;;;;16.94;100.00;101070.40;218080;1290;139558;-84
2023/04/20 08:58:10;;;;;;;14.70;9.60;;;;;;;17.37;96.96;101075.26;218419;1290;141081;-84
2023/04/20 09:03:10;;;;;;;15.10;10.60;;;;;;;17.80;99.82;101075.67;218114;1290;139308;-84
2023/04/20 09:08:10;;;;;;;16.90;9.60;;;;;;;18.50;98.22;101078.23;218715;1290;140534;-83
2023/04/20 09:13:23;;;;;;;18.30;9.10;;;;;;;18.67;92.51;101082.10;218280;1290;138837;-83
2023/04/20 09:18:23;;;;;;;14.30;9.30;;;;;;;18.93;92.36;101079.48;218631;1290;140720;-83
2023/04/20 09:23:24;;;;;;;12.70;7.60;;;;;;;18.95;85.98;101081.77;218310;1290;139616;-84
2023/04/20 09:28:35;;;;;;;15.60;9.00;;;;;;;18.91;87.21;101083.31;218689;1290;140654;-84
2023/04/20 09:33:36;;;;;;;12.40;8.30;;;;;;;18.81;82.86;101089.59;218088;1290;140106;-84
2023/04/20 09:38:36;;;;;;;15.90;9.10;;;;;;;18.98;84.79;101096.22;218629;1290;139413;-86
2023/04/20 09:43:39;;;;;;;13.20;8.70;;;;;;;19.00;83.17;101096.92;218260;1290;139591;-85
2023/04/20 09:48:39;;;;;;;14.70;10.10;;;;;;;19.11;83.05;101099.09;218689;1290;139029;-84
2023/04/20 09:53:40;;;;;;;13.20;9.50;;;;;;;19.10;78.78;101100.37;218163;1290;139584;-86
2023/04/20 09:58:43;;;;;;;12.60;8.90;;;;;;;19.47;79.04;101093.11;218419;1290;139126;-85
2023/04/20 10:03:43;;;;;;;15.20;9.10;;;;;;;19.89;77.00;101099.09;218015;1290;139433;-87
2023/04/20 10:08:44;;;;;;;14.10;9.70;;;;;;;20.58;76.66;101093.81;218639;1290;139634;-84
2023/04/20 10:13:44;;;;;;;14.80;9.00;;;;;;;21.21;74.29;101084.30;218187;1290;139093;-84
2023/04/20 10:19:03;;;;;;;14.00;8.50;;;;;;;21.50;68.23;101088.12;218724;1290;140184;-85
2023/04/20 10:24:04;;;;;;;16.30;9.00;;;;;;;21.06;64.25;101084.13;218219;1290;138731;-85
2023/04/20 10:29:08;;;;;;;14.90;8.00;;;;;;;20.81;65.51;101079.60;218167;1290;140863;-86
2023/04/20 10:34:09;;;;;;;13.60;8.90;;;;;;;21.09;66.87;101073.59;218682;1290;138724;-84
2023/04/20 10:39:14;;;;;;;13.80;8.30;;;;;;;21.11;64.74;101073.58;218012;1290;139522;-85
2023/04/20 10:44:15;;;;;;;12.50;7.50;;;;;;;21.22;64.79;101070.36;218512;1290;138648;-83
2023/04/20 10:49:17;;;;;;;12.90;7.30;;;;;;;21.45;64.70;101065.35;218212;1290;139304;-84
2023/04/20 10:54:17;;;;;;;14.60;7.90;;;;;;;21.34;62.07;101069.61;218579;1290;138632;-83
2023/04/20 10:59:22;;;;;;;13.80;8.00;;;;;;;20.62;60.56;101069.81;218173;1290;139235;-83
2023/04/20 11:04:32;;;;;;;16.20;7.60;;;;;;;20.41;61.43;101062.81;218635;1290;139250;-83
2023/04/20 11:09:34;;;;;;;16.10;8.10;;;;;;;20.27;61.63;101057.32;218015;1290;138605;-83
2023/04/20 11:14:37;;;;;;;14.10;6.80;;;;;;;20.28;63.53;101061.31;218682;1290;139108;-84
2023/04/20 11:19:37;;;;;;;12.50;6.60;;;;;;;20.41;63.30;101052.74;218177;1290;139148;-83
2023/04/20 11:24:40;;;;;;;11.50;7.00;;;;;;;20.40;61.79;101055.73;218580;1290;138178;-82
2023/04/20 11:29:40;;;;;;;11.80;6.50;;;;;;;20.49;60.23;101054.20;218121;1290;138944;-83
2023/04/20 11:34:40;;;;;;;11.60;6.00;;;;;;;20.41;62.36;101057.77;218688;1290;138715;-82
2023/04/20 11:39:41;;;;;;;11.90;7.00;;;;;;;20.63;62.64;101053.36;218621;1290;138354;-83
2023/04/20 11:44:42;;;;;;;15.60;7.30;;;;;;;20.53;61.28;101052.35;218737;1290;139355;-83
2023/04/20 11:49:42;;;;;;;11.60;7.10;;;;;;;20.35;61.22;101052.71;218189;1290;138593;-87
2023/04/20 11:54:43;;;;;;;12.80;6.20;;;;;;;19.96;60.87;101050.20;218674;1290;139549;-84
2023/04/20 11:59:46;;;;;;;13.10;6.80;;;;;;;19.92;61.46;101050.59;218080;1290;138511;-82
2023/04/20 12:04:47;;;;;;;11.90;6.50;;;;;;;19.92;61.48;101043.64;218728;1290;138447;-83
2023/04/20 12:09:48;;;;;;;12.30;6.90;;;;;;;19.81;60.89;101045.98;218123;1290;139504;-83
2023/04/20 12:14:48;;;;;;;12.60;6.70;;;;;;;19.63;60.84;101036.48;218682;1290;138640;-83
2023/04/20 12:19:49;;;;;;;12.60;5.60;;;;;;;19.48;60.44;101039.27;218238;1290;140840;-84
2023/04/20 12:24:49;;;;;;;11.80;5.30;;;;;;;19.28;61.94;101034.29;218649;1290;138306;-82
2023/04/20 12:29:50;;;;;;;8.10;4.70;;;;;;;19.64;63.50;101035.83;218177;1290;139749;-82
2023/04/20 12:34:51;;;;;;;12.80;5.50;;;;;;;19.53;60.60;101030.96;218717;1291;139279;-82
2023/04/20 12:39:51;;;;;;;11.50;5.70;;;;;;;19.36;61.48;101036.64;218181;1290;139067;-82
2023/04/20 12:44:53;;;;;;;11.30;5.50;;;;;;;19.16;60.07;101028.30;218584;1290;138335;-82
2023/04/20 12:49:53;;;;;;;8.10;4.50;;;;;;;19.07;62.11;101025.73;218251;1290;138276;-81
2023/04/20 12:54:54;;;;;;;14.30;5.70;;;;;;;19.15;62.46;101022.89;218637;1290;137954;-83
2023/04/20 12:59:55;;;;;;;8.90;5.40;;;;;;;19.01;61.12;101018.15;218132;1290;139702;-83
2023/04/20 13:04:55;;;;;;;12.50;6.10;;;;;;;18.86;61.96;101022.02;218700;1290;138899;-81
2023/04/20 13:09:56;;;;;;;11.70;5.60;;;;;;;18.69;62.29;101022.55;218174;1290;138882;-82
2023/04/20 13:14:56;;;;;;;12.90;6.00;;;;;;;18.62;62.99;101017.48;218617;1290;138533;-82
2023/04/20 13:19:57;;;;;;;11.90;6.20;;;;;;;18.61;63.60;101013.51;218217;1290;139116;-81
2023/04/20 13:24:57;;;;;;;10.60;5.70;;;;;;;18.73;64.34;101006.26;218628;1290;138129;-82
2023/04/20 13:30:00;;;;;;;14.00;5.80;;;;;;;18.89;62.81;101003.09;218109;1290;139481;-85
2023/04/20 13:35:01;;;;;;;12.90;5.80;;;;;;;18.92;61.21;100999.48;218601;1290;138738;-81
2023/04/20 13:40:03;;;;;;;15.30;4.80;;;;;;;19.04;61.76;101000.41;218025;1290;139442;-83
2023/04/20 13:45:04;;;;;;;14.50;5.30;;;;;;;19.06;59.74;101000.78;218733;1290;140119;-83
2023/04/20 13:50:05;;;;;;;11.40;5.20;;;;;;;18.91;59.38;101000.69;218304;1290;139013;-82
2023/04/20 13:55:06;;;;;;;14.10;6.00;;;;;;;18.81;59.70;100998.58;219076;1291;95606;-82
2023/04/20 14:00:07;;;;;;;17.00;5.20;;;;;;;18.82;60.27;100989.40;218255;1290;140333;-83
2023/04/20 14:05:09;;;;;;;12.50;4.70;;;;;;;18.78;59.30;100993.20;218576;1290;138640;-82
2023/04/20 14:10:09;;;;;;;12.50;4.80;;;;;;;18.81;59.73;100987.98;218118;1290;139026;-83
2023/04/20 14:15:10;;;;;;;18.20;5.10;;;;;;;18.82;59.32;100989.81;218625;1290;138442;-82
2023/04/20 14:20:10;;;;;;;16.10;5.10;;;;;;;18.90;59.38;100984.03;218078;1291;139129;-82
2023/04/20 14:25:11;;;;;;;20.10;5.60;;;;;;;18.88;59.30;100987.17;218585;1290;95688;-83
2023/04/20 14:30:12;;;;;;;13.50;6.30;;;;;;;18.84;59.60;100981.41;218111;1290;139352;-85
2023/04/20 14:35:12;;;;;;;13.80;5.50;;;;;;;18.69;60.87;100977.79;218666;1290;139046;-82
2023/04/20 14:40:13;;;;;;;13.20;5.40;;;;;;;18.61;61.19;100971.21;218033;1290;138352;-83
2023/04/20 14:45:14;;;;;;;11.10;4.90;;;;;;;18.65;62.09;100968.05;218673;1290;139516;-82
2023/04/20 14:50:14;;;;;;;15.50;4.80;;;;;;;18.73;61.23;100964.52;218137;1290;139054;-82
2023/04/20 14:55:15;;;;;;;18.40;5.30;;;;;;;18.72;59.53;100967.71;218728;1291;95695;-83
2023/04/20 15:00:16;;;;;;;15.40;4.70;;;;;;;18.60;58.47;100969.95;218028;1291;138443;-84
2023/04/20 15:05:16;;;;;;;17.80;4.90;;;;;;;18.49;58.52;100973.74;218532;1290;138655;-82
2023/04/20 15:10:18;;;;;;;20.50;3.90;;;;;;;18.44;58.54;100970.94;218031;1290;139396;-81
2023/04/20 15:15:18;;;;;;;22.60;5.50;;;;;;;18.44;59.38;100970.14;218437;1290;138769;-83
2023/04/20 15:20:19;;;;;;;18.90;4.00;;;;;;;18.42;59.10;100973.98;218161;1290;139254;-86
2023/04/20 15:25:19;;;;;;;12.60;4.00;;;;;;;18.37;57.40;100966.25;218676;1290;95640;-83
2023/04/20 15:30:19;;;;;;;11.20;4.10;;;;;;;18.30;57.41;100964.89;218175;1291;139664;-85
2023/04/20 15:35:20;;;;;;;15.00;4.20;;;;;;;18.25;56.41;100965.73;218658;1291;139001;-84
2023/04/20 15:40:20;;;;;;;21.50;4.40;;;;;;;18.14;55.76;100967.05;218179;1290;138788;-82
2023/04/20 15:45:21;;;;;;;23.40;4.70;;;;;;;18.01;56.75;100964.64;218630;1291;138543;-84
2023/04/20 15:50:22;;;;;;;18.70;3.70;;;;;;;17.85;57.34;100962.52;218043;1290;140038;-84
2023/04/20 15:55:22;;;;;;;17.20;3.90;;;;;;;17.80;57.94;100960.81;218759;1291;96080;-82
2023/04/20 16:00:23;;;;;;;22.00;4.50;;;;;;;17.73;57.90;100964.36;218114;1291;139150;-81
2023/04/20 16:05:25;;;;;;;16.20;4.80;;;;;;;17.65;57.09;100964.94;218706;1291;138402;-82
2023/04/20 16:10:26;;;;;;;17.40;4.20;;;;;;;17.61;57.29;100967.02;218433;1291;139062;-81
2023/04/20 16:15:26;;;;;;;16.50;4.10;;;;;;;17.54;58.38;100967.89;218463;1290;282554;-84
2023/04/20 16:20:27;;;;;;;21.70;4.90;;;;;;;17.48;58.64;100965.71;218136;1290;139235;-81
2023/04/20 16:25:27;;;;;;;14.60;4.20;;;;;;;17.45;60.17;100968.05;218725;1291;95636;-86
2023/04/20 16:30:28;;;;;;;15.30;4.40;;;;;;;17.39;60.87;100966.34;218022;1290;138909;-81
2023/04/20 16:35:28;;;;;;;22.00;5.00;;;;;;;17.37;62.21;100974.21;218579;1290;139305;-82
2023/04/20 16:40:29;;;;;;;20.40;4.80;;;;;;;17.35;61.97;100972.86;218041;1290;140724;-82
2023/04/20 16:45:31;;;;;;;19.50;4.60;;;;;;;17.38;61.42;100976.44;218695;1291;138578;-82
2023/04/20 16:50:32;;;;;;;18.20;3.80;;;;;;;17.41;61.74;100974.29;218085;1291;140509;-82
2023/04/20 16:55:32;;;;;;;20.40;4.30;;;;;;;17.37;61.73;100974.60;218686;1291;95714;-82
2023/04/20 17:00:33;;;;;;;20.60;4.20;;;;;;;17.30;61.48;100973.70;218122;1292;139377;-82
2023/04/20 17:05:36;;;;;;;11.80;3.60;;;;;;;17.22;61.54;100975.59;218604;1290;138351;-82
2023/04/20 17:10:38;;;;;;;17.30;4.10;;;;;;;17.14;62.32;100980.48;218145;1291;139186;-82
2023/04/20 17:15:41;;;;;;;12.70;3.90;;;;;;;17.01;61.81;100982.80;218537;1291;140121;-82
2023/04/20 17:20:42;;;;;;;14.10;4.80;;;;;;;16.91;62.80;100985.73;218123;1290;139115;-81
2023/04/20 17:25:44;;;;;;;15.70;4.50;;;;;;;16.84;64.08;100990.67;218741;1292;95616;-81
2023/04/20 17:30:45;;;;;;;14.90;4.60;;;;;;;16.73;64.86;100995.36;218046;1290;138081;-82
2023/04/20 17:35:45;;;;;;;11.00;4.80;;;;;;;16.58;64.22;100991.13;218557;1290;138558;-82
2023/04/20 17:40:46;;;;;;;18.90;8.50;;;;;;;16.43;64.69;101004.30;218070;1290;139587;-81
2023/04/20 17:45:49;;;;;;;18.00;5.40;;;;;;;16.28;65.09;101005.89;218542;1291;138509;-82
2023/04/20 17:50:50;;;;;;;13.30;4.60;;;;;;;16.08;65.61;101005.71;218067;1290;140713;-82
2023/04/20 17:55:50;;;;;;;15.20;5.10;;;;;;;15.97;66.96;101001.06;218751;1291;95708;-82
2023/04/20 18:00:50;;;;;;;15.30;4.60;;;;;;;15.85;68.45;101002.02;218081;1291;138661;-82
2023/04/20 18:05:51;;;;;;;14.40;4.90;;;;;;;15.72;70.16;101003.77;218656;1290;138486;-82
2023/04/20 18:10:51;;;;;;;18.20;5.00;;;;;;;15.59;71.26;101005.92;218144;1294;138823;-82
2023/04/20 18:15:52;;;;;;;18.40;6.00;;;;;;;15.46;71.95;101003.46;218722;1291;137333;-81
2023/04/20 18:20:52;;;;;;;18.40;6.10;;;;;;;15.28;71.87;101006.29;218356;1290;139275;-82
2023/04/20 18:25:53;;;;;;;22.70;7.20;;;;;;;15.10;72.53;101009.88;218675;1292;95662;-81
2023/04/20 18:30:54;;;;;;;20.80;5.10;;;;;;;14.88;73.58;101014.51;218077;1290;138933;-81
2023/04/20 18:35:55;;;;;;;13.80;5.10;;;;;;;14.67;74.33;101017.60;218585;1290;139199;-81
2023/04/20 18:40:55;;;;;;;17.30;7.10;;;;;;;14.47;75.82;101020.76;218127;1291;141008;-81
2023/04/20 18:45:55;;;;;;;18.30;7.60;;;;;;;14.27;76.22;101025.23;218542;1290;139271;-81
2023/04/20 18:50:56;;;;;;;20.80;7.70;;;;;;;14.04;76.82;101020.02;218088;1291;139706;-81
2023/04/20 18:56:00;;;;;;;19.00;7.60;;;;;;;13.82;77.40;101022.39;218732;1291;95661;-81
2023/04/20 19:01:02;;;;;;;17.90;7.50;;;;;;;13.60;78.16;101025.69;218096;1290;140276;-81
2023/04/20 19:06:02;;;;;;;17.60;7.80;;;;;;;13.36;78.82;101026.36;218576;1289;138904;-81
2023/04/20 19:11:03;;;;;;;12.90;7.40;;;;;;;13.14;79.87;101024.64;218152;1290;140041;-81
2023/04/20 19:16:04;;;;;;;15.50;7.70;;;;;;;12.98;80.52;101027.13;218645;1290;139045;-80
2023/04/20 19:21:05;;;;;;;16.30;7.20;;;;;;;12.79;81.26;101029.11;218138;1290;140103;-81
2023/04/20 19:26:06;;;;;;;19.80;7.80;;;;;;;12.61;81.95;101029.21;218665;1291;95703;-80
2023/04/20 19:31:08;;;;;;;19.10;8.20;;;;;;;12.45;82.72;101027.20;218077;1291;139615;-80
2023/04/20 19:36:08;;;;;;;20.70;9.60;;;;;;;12.34;83.37;101025.09;218567;1290;138920;-80
2023/04/20 19:41:09;;;;;;;22.80;11.60;;;;;;;12.24;83.92;101027.77;218121;1290;141012;-80
2023/04/20 19:46:09;;;;;;;23.30;10.70;;;;;;;12.11;84.56;101030.43;218607;1290;139238;-80
2023/04/20 19:51:10;;;;;;;17.00;8.60;;;;;;;12.03;85.28;101034.41;218100;1290;139627;-82
2023/04/20 19:56:11;;;;;;;15.50;7.70;;;;;;;11.95;85.94;101032.39;218547;1291;139777;-82
2023/04/20 20:01:11;;;;;;;18.30;7.80;;;;;;;11.83;86.78;101032.44;218269;1290;141195;-81
2023/04/20 20:06:11;;;;;;;19.30;9.30;;;;;;;11.74;87.63;101030.40;218685;1290;140115;-82
2023/04/20 20:11:12;;;;;;;16.40;9.50;;;;;;;11.66;88.00;101033.66;218065;1290;139496;-81
2023/04/20 20:16:12;;;;;;;20.80;9.40;;;;;;;11.56;88.62;101031.84;218609;1291;139083;-81
2023/04/20 20:21:12;;;;;;;18.80;9.00;;;;;;;11.49;89.18;101030.77;218349;1291;141073;-81
2023/04/20 20:26:13;;;;;;;24.00;9.30;;;;;;;11.43;89.44;101035.30;218551;1291;139003;-82
2023/04/20 20:31:13;;;;;;;19.90;9.20;;;;;;;11.39;89.38;101031.83;218247;1291;139819;-82
2023/04/20 20:36:16;;;;;;;24.70;10.30;;;;;;;11.32;89.54;101032.44;218731;1290;139154;-81
2023/04/20 20:41:19;;;;;;;24.20;10.00;;;;;;;11.25;89.99;101030.66;218161;1290;141589;-81
2023/04/20 20:46:20;;;;;;;24.40;12.10;;;;;;;11.19;90.47;101034.79;218481;1291;140600;-80
2023/04/20 20:51:20;;;;;;;20.00;11.50;;;;;;;11.13;90.64;101037.99;218092;1290;140949;-80
2023/04/20 20:56:21;;;;;;;21.40;11.00;;;;;;;11.08;91.00;101038.67;218599;1290;139327;-81
2023/04/20 21:01:22;;;;;;;21.20;11.00;;;;;;;11.02;91.45;101035.09;218221;1290;139950;-81
2023/04/20 21:06:22;;;;;;;23.40;10.70;;;;;;;10.97;92.01;101036.50;218666;1290;139882;-81
2023/04/20 21:11:23;;;;;;;25.10;12.30;;;;;;;10.91;92.22;101036.00;218135;1290;140618;-80
2023/04/20 21:16:23;;;;;;;25.30;12.10;;;;;;;10.86;92.33;101038.18;218620;1290;139970;-81
2023/04/20 21:21:23;;;;;;;26.60;11.90;;;;;;;10.80;92.48;101037.98;218090;1291;140434;-80
2023/04/20 21:26:24;;;;;;;22.20;12.90;;;;;;;10.74;92.58;101037.70;218665;1290;139320;-81
2023/04/20 21:31:24;;;;;;;25.70;13.10;;;;;;;10.67;92.95;101041.57;218100;1290;141621;-81
2023/04/20 21:36:25;;;;;;;25.60;14.30;;;;;;;10.58;93.27;101038.09;218481;1290;139460;-81
2023/04/20 21:41:28;;;;;;;29.10;13.90;;;;;;;10.51;93.38;101043.04;218094;1290;141072;-82
2023/04/20 21:46:29;;;;;;;27.50;13.90;;;;;;;10.44;93.65;101044.23;218691;1290;139432;-81
2023/04/20 21:51:30;;;;;;;25.50;13.80;;;;;;;10.38;93.74;101045.13;218065;1290;139930;-82
2023/04/20 21:56:31;;;;;;;26.90;14.60;;;;;;;10.31;93.96;101048.03;218658;1290;140111;-81
2023/04/20 22:01:31;;;;;;;23.80;14.40;;;;;;;10.25;94.20;101042.87;218209;1290;140425;-81
2023/04/20 22:06:31;;;;;;;26.40;14.50;;;;;;;10.19;94.13;101047.92;218610;1290;140891;-81
2023/04/20 22:11:35;;;;;;;23.70;15.00;;;;;;;10.14;94.32;101054.04;218150;1290;139749;-80
2023/04/20 22:16:35;;;;;;;22.70;15.30;;;;;;;10.09;94.47;101052.11;219054;1290;138293;-81
2023/04/20 22:21:36;;;;;;;27.00;14.60;;;;;;;10.04;94.72;101049.23;218226;1290;141450;-80